Little Creek, Louisiana
Current Conditions -  °F | °C
As of 1:53 PM on Sunday 23 Nov 2014 (Local Time) from KESF Reporting Station
Broken Clouds Broken Clouds  
Wind Chill: 72°   Ceiling: 3000
Heat Index: 72°   Visibility: 10mi
Dew Point: 58°   Wind: 14mph
Humidity: 61%   Direction: 220°SW
Pressure: 29.53"   Gusts: 22mph
Location:  31.6376°N, 92.2485°W
Report Text: KESF 231953Z AUTO 22012G19KT 10SM BKN030 22/14 A2953 RMK AO2 SLP998 T02220144
Loading
Personal Weather Stations






























Interactive Weather Map New forecast layout! Learn more

10-Day Weather Forecast

Advertisements
Track Severe Weather on mobile